Latest Observation

42 Stations

15 Minute Data | America/Los_Angeles
as of 9/2/26 3:20 AM PDT
Station Date Time Temp (°F) RH (%) Dew Pt (°F) Wind Spd (mph) Wind Dir (°) Wind Gust (mph) Latest Rain (In) Daily Rain (In) Daily Min Temp (°F) Daily Max Temp (°F) Daily Max Wind (mph)
Elk Mt. Farm 8/13/26 1500 85.6   7.4 - - - - - - - 51.4   1.1 85.6   7.4 -
Upper Lake 9/2/26 0315 52.4   4.4 94   14 50.7   0.1 1.9 NNE | 20 3.5   4.2 0.00 0.00 49.9   5.9 52.6   4.4 3.5   8.3
Scotts Valley 9/2/26 0315 53.5   5.3 93   0 51.6   5.2 0.1 NNW | 344 1.1   0.4 0.00 0.00 52.1   5.0 53.6   1.2 2.6   2.0
Scotts Valley-South (Bella Vista) 9/2/26 0315 53.5   1.6 88   2 50.2   2.4 0.4 NNW | 336 1.8   0.4 0.00 0.00 52.8   3.5 53.6   0.0 2.6   4.7
Kelseyville 9/2/26 0315 55.7   3.8 83   5 50.6   2.2 0.6 NNW | 337 2.4   0.7 0.00 0.00 54.0   6.2 56.3   4.2 8.6   3.3
Kelseyville Remote 9/2/26 0315 56.7   4.5 74   6 48.3   2.1 - - - 0.00 0.00 54.5   6.3 57.2   5.0 -
Kelseyville (Clark Drive) 9/2/26 0315 54.9   2.5 - - - - - 0.00 0.00 53.4   8.2 56.0   2.9 -
Kelsey Bench (Oaklea) 9/2/26 0315 55.2   4.4 77   10 48.2   1.1 0.6 NNW | 348 2.3   1.0 0.00 0.00 54.1   5.0 55.7   4.3 5.3   1.4
Smith Lane (Kelseyville-South) 9/2/26 0315 55.6   6.7 82   14 50.3   2.4 0.2 SSW | 212 2.1   2.1 0.00 0.00 53.7   9.5 56.6   7.8 8.2   5.0
Bell Hill-West 9/2/26 0315 56.0   7.8 89   9 52.8   5.1 1.0 SSW | 208 3.1   0.3 0.00 0.00 55.3   7.4 57.0   3.1 6.8   3.0
High Valley Ridgeline (Brassfield) 9/2/26 0315 53.5   0.7 79   8 47.3   1.7 5.6 W | 262 8.9   6.9 0.00 0.00 53.3   1.0 53.9   0.9 12.8   11.0
Wight Way (Adobe Creek) 9/2/26 0300 55.2   7.6 81   12 49.5   3.8 0.1 ENE | 60 1.1   1.8 0.00 0.00 54.3   8.1 56.2   6.3 4.7   1.4
Ridgeline Top (Brassfield) 9/2/26 0315 53.3   0.7 - - - - - - - 53.0   0.8 53.7   0.9 -
Ridgeline Low (Brassfield) 9/2/26 0315 55.4   0.7 - - - - - - - 55.0   1.0 55.7   1.0 -
Long Valley (Shannon) 6/29/26 1400 84.9   4.6 25   1 44.9   3.2 2.9 ENE | 75 10.2   0.4 0.00 0.00 46.4   0.4 86.9   6.5 13.7   1.8
High Valley Winery 9/2/26 0315 56.2   1.7 71   11 46.9   2.1 4.3 W | 264 8.0   8.5 0.00 0.00 54.4   0.5 56.6   1.8 12.4   6.4
Round Mtn Rd. 9/2/26 0245 54.6   1.9 - - - - - - - 52.0   0.1 55.2   1.3 -
Circle O 9/2/26 0315 52.9   0.4 - - - - - - - 52.2   1.1 54.8   1.4 -
Robertsbridge Vineyards 9/2/26 0315 52.2   4.3 84   8 47.6   2.0 - - - - - 50.5   5.7 53.5   2.5 -
Urgency Vineyard 9/2/26 0315 53.0   0.2 76   7 45.6   2.3 1.0 SW | 220 2.3   4.7 0.00 0.00 52.9   1.8 55.4   2.6 6.4   3.5
Red Hills (Beckstoffer) 9/2/26 0315 53.8   0.5 75   11 46.2   3.2 - - - 0.00 0.00 53.8   2.0 55.9   2.6 -
Winters (Shannon) 9/2/26 0315 50.8   1.4 79   4 44.6   2.5 0.7 ESE | 112 2.8   7.1 0.00 0.00 50.5   0.6 52.9   0.4 3.4   9.4
Secret Pond (Shannon) 9/2/26 0315 50.9   0.7 76   11 43.5   2.9 1.1 SSW | 193 3.4   10.3 0.00 0.00 50.7   2.3 53.7   1.8 6.1   7.5
Rolling Knolls (Shannon) 9/2/26 0315 51.4   2.6 79   1 45.2   2.1 0.4 SW | 223 2.0   9.6 0.00 0.00 50.5   3.1 52.6   2.9 3.9   9.9
Lower Lake 9/2/26 0315 54.0   0.7 75   8 46.4   2.1 1.5 S | 183 3.3   8.4 0.00 0.00 52.8   0.4 54.9   0.2 3.3   13.0
Adamson Ranch 9/2/26 0315 51.7   6.5 80   11 45.9   2.9 0.6 S | 185 2.6   2.6 0.00 0.00 49.7   4.5 52.9   2.5 3.3   0.4
Middletown (Diamond D) 9/2/26 0315 59.1   11.8 79   13 52.5   7.4 3.2 N | 355 7.9   5.7 0.00 0.00 57.8   11.0 59.2   7.5 12.1   7.2
Middletown-West (Domaine Helena) 9/2/26 0315 57.2   5.3 82   8 51.7   2.8 5.4 SSW | 205 8.4   0.5 0.00 0.00 55.9   7.6 57.7   2.8 9.5   0.1
Middletown-South 9/2/26 0315 58.2   8.5 78   16 51.5   3.3 2.2 WSW | 254 7.0   4.4 0.00 0.00 56.9   8.2 58.6   5.4 9.6   4.3
Jim Davis (Langtry) 9/2/26 0315 53.9   2.3 85   8 49.6   0.2 1.1 S | 174 3.4   1.6 0.00 0.00 53.0   3.0 55.2   0.3 4.1   0.2
Napa Valley Basin 9/2/26 0315 50.8   3.6 84   8 46.1   1.2 0.7 NNW | 334 2.8   0.4 0.00 0.00 49.7   3.5 52.8   1.4 4.3   0.9
Lower Bohn 9/2/26 0315 49.5   4.7 80   1 43.6   4.1 1.3 NW | 315 2.6   0.6 0.00 0.00 48.8   5.6 51.5   2.7 4.3   0.5
Upper Bohn-North 9/2/26 0315 53.3   2.9 91   8 50.6   0.6 0.8 SSE | 164 2.0   0.6 0.00 0.00 51.4   2.4 53.4   1.8 2.8   0.9
Snell Peak Blk#9 9/2/26 0315 57.6   6.2 76   18 50.2   0.4 1.7 SSW | 193 4.4   3.4 0.00 0.00 55.2   3.8 57.7   2.8 6.0   1.5
Coyote Lake West 9/2/26 0315 56.0   6.7 79   12 49.4   2.9 2.1 SE | 125 4.2   3.1 0.00 0.00 52.6   3.5 56.1   0.5 5.5   0.8
Coyote Lake Northeast 9/2/26 0315 56.0   5.1 81   10 50.2   1.9 - - - - - 53.9   3.2 56.0   0.7 -
Coyote Lake East 9/2/26 0315 52.1   3.8 88   4 48.8   2.7 - - - - - 50.7   2.4 52.3   0.2 -
Morgan Valley 9/2/26 0315 53.4   1.2 90   1 50.5   1.5 6.3 SW | 214 12.0   3.5 0.00 0.00 52.2   0.6 53.5   1.3 16.2   0.6
Mine Pit North 9/2/26 0315 53.7   2.7 83   6 48.8   0.8 6.0 S | 183 11.6   5.2 - - 52.8   2.1 54.8   1.0 17.5   9.3
Mine Pit South 9/2/26 0315 52.6   1.1 82   8 47.4   1.3 4.0 S | 184 8.9   3.4 0.00 0.00 52.0   0.8 53.7   0.5 14.2   1.9
Cow Mountain 9/2/26 0315 47.4   0.1 - - 5.5 S | 170 11.0   17.1 0.00 0.01 46.8   0.1 47.9   0.5 14.7   13.4
Ukiah-SE (Ruddick) 9/2/26 0315 55.6   3.6 91   17 53.1   2.2 1.9 N | 2 3.4   7.1 0.00 0.00 55.1   4.0 55.8   4.2 3.6   8.1
Max     59.1 94 53.1 6.3 - 12.0 0.00 0.01 57.8 59.2 17.5
Avg     54.0 82 48.7 2.1 - 4.7 0.00 - - - -
Min     47.4 71 43.5 0.1 - 1.1 0.00 0.00 46.8 47.9 2.6